Time;durP1;ratioP1;P1;durP2;ratioP2;P2;SDS_P1;SDS_P2;PMS_P1;PMS_P2;Temp;Humidity;BMP_temperature;BMP_pressure;BME280_temperature;BME280_humidity;BME280_pressure;Samples;Min_cycle;Max_cycle;Signal;HPM_P1;HPM_P2
2021/08/27 00:01:25;;;;;;;7.95;4.65;;;13.60;80.70;;;;;;5098800;28;20023;-76
2021/08/27 00:03:50;;;;;;;8.05;4.22;;;13.60;80.40;;;;;;5098693;28;20031;-77
2021/08/27 00:06:16;;;;;;;7.25;4.40;;;13.60;80.50;;;;;;5098815;28;20484;-77
2021/08/27 00:08:42;;;;;;;9.07;4.40;;;13.60;80.60;;;;;;5116671;28;20028;-77
2021/08/27 00:11:09;;;;;;;6.68;4.15;;;13.60;80.70;;;;;;5098675;28;20472;-77
2021/08/27 00:13:34;;;;;;;12.55;4.75;;;13.60;80.80;;;;;;5081944;28;20023;-77
2021/08/27 00:16:00;;;;;;;8.57;5.00;;;13.60;80.70;;;;;;5098424;28;20077;-77
2021/08/27 00:18:25;;;;;;;9.43;4.38;;;13.60;80.70;;;;;;5098553;28;20012;-76
2021/08/27 00:20:51;;;;;;;8.48;4.63;;;13.60;80.90;;;;;;5098466;28;20434;-76
2021/08/27 00:23:16;;;;;;;6.47;4.00;;;13.60;81.00;;;;;;5098199;28;20028;-76
2021/08/27 00:25:42;;;;;;;7.72;3.80;;;13.60;80.50;;;;;;5098150;28;20472;-76
2021/08/27 00:28:09;;;;;;;8.50;4.57;;;13.60;80.40;;;;;;5098418;28;20085;-75
2021/08/27 00:30:35;;;;;;;7.40;4.20;;;13.60;80.40;;;;;;5116526;28;20368;-76
2021/08/27 00:33:00;;;;;;;8.48;4.32;;;13.60;80.30;;;;;;5098175;28;20039;-76
2021/08/27 00:35:26;;;;;;;10.70;4.50;;;13.70;80.40;;;;;;5098100;28;20032;-75
2021/08/27 00:37:52;;;;;;;7.00;3.97;;;13.70;80.30;;;;;;5097796;28;20023;-75
2021/08/27 00:40:17;;;;;;;10.68;4.57;;;13.70;80.20;;;;;;5098086;28;20381;-75
2021/08/27 00:42:43;;;;;;;5.72;3.75;;;13.80;80.20;;;;;;5116159;28;20344;-75
2021/08/27 00:45:10;;;;;;;7.82;3.92;;;13.80;80.00;;;;;;5097829;28;20070;-75
2021/08/27 00:47:35;;;;;;;8.93;4.75;;;13.80;80.00;;;;;;5097920;28;20387;-75
2021/08/27 00:50:01;;;;;;;12.57;4.25;;;13.70;80.00;;;;;;5097955;28;20020;-75
2021/08/27 00:52:27;;;;;;;7.43;4.05;;;13.70;80.30;;;;;;5098059;28;20053;-75
2021/08/27 00:54:53;;;;;;;6.47;3.75;;;13.70;80.40;;;;;;5115829;28;20058;-76
2021/08/27 00:57:20;;;;;;;11.60;4.55;;;13.70;80.70;;;;;;5097943;28;20023;-76
2021/08/27 00:59:46;;;;;;;7.85;4.03;;;13.70;80.50;;;;;;5097730;28;20078;-76
2021/08/27 01:02:12;;;;;;;7.07;4.03;;;13.70;80.10;;;;;;5097317;28;20023;-75
2021/08/27 01:04:40;;;;;;;7.43;4.30;;;13.70;80.20;;;;;;5097360;28;20601;-75
2021/08/27 01:07:12;;;;;;;5.78;3.72;;;13.70;80.20;;;;;;5097305;28;20023;-76
2021/08/27 01:09:57;;;;;;;10.27;3.80;;;13.70;80.10;;;;;;5080578;28;20027;-75
2021/08/27 01:12:43;;;;;;;6.78;4.10;;;13.70;80.30;;;;;;5097559;28;20023;-75
2021/08/27 01:15:19;;;;;;;8.32;3.90;;;13.70;80.50;;;;;;5115672;28;20074;-75
2021/08/27 01:18:16;;;;;;;7.03;3.78;;;13.70;80.40;;;;;;5097305;28;20027;-75
2021/08/27 01:20:57;;;;;;;8.10;4.03;;;13.60;80.30;;;;;;5097573;28;20020;-76
2021/08/27 01:23:45;;;;;;;7.40;3.58;;;13.60;80.40;;;;;;5097363;28;20487;-76
2021/08/27 01:26:13;;;;;;;8.10;4.20;;;13.60;80.60;;;;;;5097140;28;20031;-76
2021/08/27 01:28:48;;;;;;;7.93;3.78;;;13.60;80.70;;;;;;5097748;28;20027;-74
2021/08/27 01:31:34;;;;;;;5.38;3.58;;;13.60;80.80;;;;;;5097222;28;20070;-75
2021/08/27 01:34:14;;;;;;;5.88;3.53;;;13.60;80.90;;;;;;5097081;28;20089;-74
2021/08/27 01:36:42;;;;;;;6.18;3.70;;;13.70;81.00;;;;;;5097158;28;20024;-74
2021/08/27 01:39:12;;;;;;;7.85;4.13;;;13.70;80.80;;;;;;5115170;28;20033;-74
2021/08/27 01:41:40;;;;;;;5.90;3.85;;;13.70;80.60;;;;;;5096518;28;20035;-75
2021/08/27 01:44:08;;;;;;;6.32;3.30;;;13.70;80.40;;;;;;5096772;28;20024;-76
2021/08/27 01:46:36;;;;;;;5.55;3.55;;;13.70;80.40;;;;;;5115099;28;20036;-77
2021/08/27 01:49:10;;;;;;;7.88;4.28;;;13.70;80.40;;;;;;5115067;28;20023;-76
2021/08/27 01:51:37;;;;;;;8.18;4.13;;;13.70;80.30;;;;;;5115013;28;20016;-77
2021/08/27 01:54:04;;;;;;;10.00;3.97;;;13.70;80.30;;;;;;5096427;28;20036;-76
2021/08/27 01:56:32;;;;;;;9.52;4.00;;;13.70;80.30;;;;;;5096713;28;20031;-77
2021/08/27 01:58:59;;;;;;;6.38;3.47;;;13.70;80.30;;;;;;5096740;28;20039;-77
2021/08/27 02:01:26;;;;;;;7.82;3.58;;;13.70;80.20;;;;;;5096244;28;20050;-77
2021/08/27 02:03:56;;;;;;;7.15;3.60;;;13.70;80.10;;;;;;5096444;28;20027;-77
2021/08/27 02:06:24;;;;;;;8.32;3.63;;;13.80;80.10;;;;;;5096493;28;20019;-77
2021/08/27 02:08:55;;;;;;;8.00;4.07;;;13.70;80.00;;;;;;5096205;28;20033;-77
2021/08/27 02:11:21;;;;;;;8.90;3.88;;;13.70;80.00;;;;;;5096468;28;20027;-77
2021/08/27 02:13:49;;;;;;;8.52;3.83;;;13.70;80.00;;;;;;5096258;28;20122;-77
2021/08/27 02:16:15;;;;;;;11.48;4.05;;;13.70;80.00;;;;;;5096466;28;20028;-77
2021/08/27 02:18:41;;;;;;;9.52;4.00;;;13.70;80.00;;;;;;5096241;28;20020;-77
2021/08/27 02:21:09;;;;;;;7.13;3.53;;;13.70;80.10;;;;;;5096279;28;20097;-77
2021/08/27 02:23:38;;;;;;;7.70;3.72;;;13.70;80.30;;;;;;5096138;28;20182;-77
2021/08/27 02:26:05;;;;;;;8.18;3.15;;;13.70;80.40;;;;;;5096284;28;20020;-76
2021/08/27 02:28:32;;;;;;;8.05;3.45;;;13.70;80.50;;;;;;5095956;28;20423;-77
2021/08/27 02:30:57;;;;;;;6.20;3.53;;;13.70;80.80;;;;;;5095786;28;20020;-77
2021/08/27 02:33:28;;;;;;;8.85;3.63;;;13.70;80.90;;;;;;5095682;28;20028;-79
2021/08/27 02:35:56;;;;;;;6.13;3.40;;;13.70;81.10;;;;;;5095844;28;20057;-77
2021/08/27 02:38:24;;;;;;;6.93;3.47;;;13.70;81.00;;;;;;5114100;28;20024;-77
2021/08/27 02:40:50;;;;;;;7.57;3.70;;;13.70;81.00;;;;;;5095682;28;20107;-77
2021/08/27 02:43:16;;;;;;;8.55;4.13;;;13.70;80.80;;;;;;5097996;28;20019;-76
2021/08/27 02:45:42;;;;;;;6.90;3.65;;;13.70;80.90;;;;;;5099626;28;20391;-77
2021/08/27 02:48:08;;;;;;;9.48;3.95;;;13.70;80.80;;;;;;5096024;28;20030;-77
2021/08/27 02:50:50;;;;;;;8.32;4.53;;;13.70;80.70;;;;;;5113858;28;20028;-76
2021/08/27 02:53:22;;;;;;;7.30;4.22;;;13.60;80.30;;;;;;5095538;28;20022;-76
2021/08/27 02:55:54;;;;;;;10.35;3.85;;;13.60;80.60;;;;;;5113679;28;20479;-77
2021/08/27 02:58:26;;;;;;;8.55;3.70;;;13.60;80.70;;;;;;5095281;28;20024;-77
2021/08/27 03:00:59;;;;;;;8.82;4.32;;;13.60;80.60;;;;;;5095533;28;20035;-77
2021/08/27 03:03:28;;;;;;;7.68;4.25;;;13.60;80.50;;;;;;5113910;28;20027;-77
2021/08/27 03:05:58;;;;;;;12.40;4.43;;;13.60;80.40;;;;;;5113544;28;20024;-77
2021/08/27 03:08:25;;;;;;;13.20;4.05;;;13.70;80.70;;;;;;5095484;28;20024;-78
2021/08/27 03:11:06;;;;;;;6.45;3.75;;;13.60;80.60;;;;;;5095263;28;20386;-77
2021/08/27 03:13:43;;;;;;;7.57;3.65;;;13.60;80.60;;;;;;5094287;28;20034;-78
2021/08/27 03:16:11;;;;;;;7.05;4.00;;;13.60;80.60;;;;;;5095246;28;20121;-77
2021/08/27 03:18:59;;;;;;;10.13;3.80;;;13.70;80.80;;;;;;5095351;28;20020;-78
2021/08/27 03:21:36;;;;;;;7.25;3.83;;;13.60;80.60;;;;;;5113690;28;20506;-78
2021/08/27 03:24:17;;;;;;;9.00;4.18;;;13.60;80.70;;;;;;5095437;28;20095;-78
2021/08/27 03:26:46;;;;;;;9.32;4.18;;;13.60;80.50;;;;;;5095234;28;20023;-78
2021/08/27 03:29:15;;;;;;;9.88;4.50;;;13.60;80.50;;;;;;5095063;28;20049;-79
2021/08/27 03:31:42;;;;;;;10.05;4.55;;;13.50;80.60;;;;;;5095074;28;20055;-78
2021/08/27 03:34:08;;;;;;;7.65;4.28;;;13.50;80.90;;;;;;5094933;28;20027;-76
2021/08/27 03:36:35;;;;;;;10.48;4.50;;;13.50;81.80;;;;;;5095145;28;20031;-76
2021/08/27 03:39:03;;;;;;;9.50;4.28;;;13.50;80.80;;;;;;5113166;28;20081;-76
2021/08/27 03:41:31;;;;;;;8.23;4.93;;;13.50;80.90;;;;;;5094888;28;20054;-76
2021/08/27 03:43:57;;;;;;;11.02;3.90;;;13.40;81.20;;;;;;5095026;28;20035;-77
2021/08/27 03:46:25;;;;;;;10.77;4.68;;;13.40;81.40;;;;;;5094874;28;20024;-75
2021/08/27 03:48:52;;;;;;;6.13;3.80;;;13.40;81.50;;;;;;5078142;28;20027;-75
2021/08/27 03:51:20;;;;;;;7.25;4.00;;;13.40;81.50;;;;;;5078324;28;20024;-76
2021/08/27 03:53:46;;;;;;;9.23;3.90;;;13.40;81.60;;;;;;5094552;28;20181;-74
2021/08/27 03:56:14;;;;;;;11.15;5.03;;;13.50;81.60;;;;;;5094871;28;20531;-75
2021/08/27 03:58:40;;;;;;;11.55;5.25;;;13.50;81.20;;;;;;5112899;28;20031;-75
2021/08/27 04:01:06;;;;;;;11.27;4.97;;;13.40;81.30;;;;;;5115761;28;20543;-75
2021/08/27 04:03:34;;;;;;;10.43;4.43;;;13.40;81.40;;;;;;5100550;28;20078;-76
2021/08/27 04:06:08;;;;;;;8.60;4.25;;;13.30;81.40;;;;;;5099648;28;20031;-77
2021/08/27 04:08:36;;;;;;;10.02;5.60;;;13.40;81.50;;;;;;5096205;28;20020;-76
2021/08/27 04:11:02;;;;;;;11.77;5.47;;;13.30;81.50;;;;;;5094447;28;20080;-76
2021/08/27 04:13:27;;;;;;;12.30;5.32;;;13.30;81.40;;;;;;5094290;28;20016;-76
2021/08/27 04:15:53;;;;;;;11.98;6.20;;;13.40;81.10;;;;;;5094605;28;20020;-75
2021/08/27 04:18:19;;;;;;;10.95;5.60;;;13.20;81.20;;;;;;5077560;28;20499;-75
2021/08/27 04:20:45;;;;;;;15.43;5.40;;;13.10;82.70;;;;;;5094495;28;20480;-74
2021/08/27 04:23:11;;;;;;;11.93;5.20;;;13.00;82.20;;;;;;5094602;28;20023;-75
2021/08/27 04:25:37;;;;;;;13.98;5.65;;;13.00;82.60;;;;;;5115350;28;20062;-76
2021/08/27 04:28:03;;;;;;;10.38;5.53;;;13.10;82.20;;;;;;5098226;28;20106;-76
2021/08/27 04:30:28;;;;;;;15.00;5.80;;;13.00;82.20;;;;;;5098136;28;20016;-76
2021/08/27 04:32:54;;;;;;;13.90;6.15;;;13.00;82.40;;;;;;5081354;28;20023;-76
2021/08/27 04:35:19;;;;;;;10.90;6.22;;;13.00;82.50;;;;;;5098513;28;20384;-75
2021/08/27 04:37:46;;;;;;;12.68;5.97;;;13.00;82.40;;;;;;5098326;28;20110;-75
2021/08/27 04:40:12;;;;;;;14.00;6.90;;;12.90;82.20;;;;;;5116664;28;20048;-75
2021/08/27 04:42:38;;;;;;;13.93;6.68;;;12.90;82.40;;;;;;5098269;28;20020;-75
2021/08/27 04:45:04;;;;;;;15.32;6.85;;;12.90;82.40;;;;;;5098164;28;20391;-75
2021/08/27 04:47:30;;;;;;;15.15;7.28;;;12.90;82.70;;;;;;5098286;28;20030;-75
2021/08/27 04:49:55;;;;;;;13.55;7.40;;;12.90;83.10;;;;;;5098220;28;20450;-75
2021/08/27 04:52:21;;;;;;;13.73;6.43;;;12.90;83.00;;;;;;5098281;28;20073;-74
2021/08/27 04:54:46;;;;;;;12.80;5.22;;;13.00;83.00;;;;;;5097617;28;20039;-74
2021/08/27 04:57:12;;;;;;;11.73;6.53;;;13.00;82.80;;;;;;5115824;28;20034;-75
2021/08/27 04:59:42;;;;;;;14.80;6.93;;;13.00;82.30;;;;;;5097594;28;20495;-74
2021/08/27 05:02:08;;;;;;;16.17;8.05;;;13.00;82.40;;;;;;5097639;28;20091;-74
2021/08/27 05:04:34;;;;;;;18.15;7.63;;;13.00;82.70;;;;;;5097433;28;20074;-75
2021/08/27 05:07:00;;;;;;;12.82;6.40;;;12.90;83.20;;;;;;5097271;28;20404;-75
2021/08/27 05:09:25;;;;;;;11.18;6.25;;;12.90;83.50;;;;;;5097171;28;20099;-74
2021/08/27 05:11:51;;;;;;;13.45;6.47;;;12.80;83.70;;;;;;5097327;28;20422;-74
2021/08/27 05:14:17;;;;;;;12.82;7.13;;;12.80;84.60;;;;;;5097501;28;20027;-75
2021/08/27 05:16:44;;;;;;;11.25;6.97;;;12.70;85.80;;;;;;5097384;28;20028;-74
2021/08/27 05:19:10;;;;;;;11.75;6.45;;;12.70;85.80;;;;;;5115447;28;20024;-74
2021/08/27 05:21:37;;;;;;;15.20;8.23;;;12.80;85.70;;;;;;5097106;28;20073;-75
2021/08/27 05:24:06;;;;;;;12.20;7.43;;;12.90;85.50;;;;;;5115537;28;20027;-74
2021/08/27 05:26:32;;;;;;;12.77;6.85;;;12.90;85.20;;;;;;5094140;28;20440;-74
2021/08/27 05:28:58;;;;;;;14.32;7.07;;;12.90;85.00;;;;;;5097185;28;20106;-75
2021/08/27 05:31:24;;;;;;;12.85;6.97;;;13.00;84.80;;;;;;5097218;28;20027;-75
2021/08/27 05:33:51;;;;;;;18.15;7.40;;;13.00;84.70;;;;;;5097517;28;20539;-74
2021/08/27 05:36:16;;;;;;;14.32;8.88;;;13.00;84.00;;;;;;5098243;28;20032;-74
2021/08/27 05:38:42;;;;;;;9.45;6.35;;;13.00;84.60;;;;;;5097023;28;20016;-75
2021/08/27 05:41:08;;;;;;;14.55;6.45;;;12.90;85.10;;;;;;5097588;28;20055;-75
2021/08/27 05:43:34;;;;;;;13.88;7.35;;;13.00;85.20;;;;;;5096557;28;20019;-75
2021/08/27 05:46:00;;;;;;;10.80;6.85;;;12.90;85.10;;;;;;5096219;28;20016;-75
2021/08/27 05:48:25;;;;;;;14.60;6.53;;;13.00;85.00;;;;;;5096399;28;20084;-75
2021/08/27 05:50:51;;;;;;;12.50;6.50;;;13.00;84.90;;;;;;5096113;28;20031;-75
2021/08/27 05:53:17;;;;;;;10.40;6.60;;;13.00;85.40;;;;;;5114178;28;20527;-75
2021/08/27 05:55:43;;;;;;;13.35;6.57;;;13.10;85.10;;;;;;5095868;28;20036;-75
2021/08/27 05:58:08;;;;;;;13.40;7.85;;;13.10;84.80;;;;;;5096059;28;20061;-75
2021/08/27 06:00:34;;;;;;;10.93;6.45;;;13.20;84.20;;;;;;5096088;28;20023;-76
2021/08/27 06:03:00;;;;;;;15.75;7.43;;;13.20;84.10;;;;;;5096281;28;20476;-76
2021/08/27 06:05:26;;;;;;;14.43;7.55;;;13.10;84.00;;;;;;5096258;28;20027;-76
2021/08/27 06:07:51;;;;;;;14.80;6.97;;;13.10;84.30;;;;;;5095978;28;20023;-76
2021/08/27 06:10:17;;;;;;;18.58;8.40;;;13.10;84.30;;;;;;5096073;28;20015;-76
2021/08/27 06:12:43;;;;;;;13.30;7.18;;;13.00;84.70;;;;;;5096046;28;20475;-76
2021/08/27 06:15:11;;;;;;;12.63;7.28;;;13.00;85.30;;;;;;5095953;28;20038;-75
2021/08/27 06:17:36;;;;;;;13.57;8.27;;;13.00;85.20;;;;;;5095709;28;20026;-76
2021/08/27 06:20:03;;;;;;;13.98;7.57;;;13.10;85.40;;;;;;5095851;28;20032;-76
2021/08/27 06:22:29;;;;;;;12.23;7.85;;;13.10;85.00;;;;;;5095832;28;20020;-76
2021/08/27 06:24:54;;;;;;;15.82;7.75;;;13.20;85.10;;;;;;5095365;28;20085;-75
2021/08/27 06:27:20;;;;;;;15.50;7.55;;;13.10;84.30;;;;;;5095480;28;20502;-76
2021/08/27 06:29:45;;;;;;;11.82;6.00;;;13.20;85.10;;;;;;5095602;28;20519;-76
2021/08/27 06:32:11;;;;;;;15.35;7.90;;;13.30;85.30;;;;;;5095680;28;20027;-76
2021/08/27 06:34:37;;;;;;;15.63;7.60;;;13.40;84.60;;;;;;5095200;28;20608;-76
2021/08/27 06:37:02;;;;;;;13.38;7.68;;;13.40;84.00;;;;;;5095597;28;20476;-75
2021/08/27 06:39:29;;;;;;;10.68;7.15;;;13.30;84.20;;;;;;5095733;28;20365;-76
2021/08/27 06:41:54;;;;;;;14.75;7.53;;;13.40;84.20;;;;;;5095459;28;20040;-78
2021/08/27 06:44:21;;;;;;;13.32;7.97;;;13.40;83.60;;;;;;5095414;28;20110;-77
2021/08/27 06:46:47;;;;;;;13.38;6.95;;;13.40;83.70;;;;;;5113906;28;20102;-76
2021/08/27 06:49:15;;;;;;;8.57;5.70;;;13.50;83.60;;;;;;5095456;28;20107;-76
2021/08/27 06:51:42;;;;;;;12.82;7.13;;;13.50;83.50;;;;;;5095270;28;20418;-77
2021/08/27 06:54:08;;;;;;;15.73;7.28;;;13.60;82.80;;;;;;5113808;28;20031;-76
2021/08/27 06:56:33;;;;;;;15.40;6.85;;;13.60;82.70;;;;;;5095391;28;20114;-76
2021/08/27 06:58:59;;;;;;;13.23;7.40;;;13.60;82.60;;;;;;5095072;28;20070;-77
2021/08/27 07:01:27;;;;;;;13.82;7.15;;;13.60;83.20;;;;;;5113590;28;20145;-78
2021/08/27 07:03:53;;;;;;;13.98;5.85;;;13.50;84.20;;;;;;5095172;28;20020;-77
2021/08/27 07:06:19;;;;;;;17.95;7.63;;;13.50;84.40;;;;;;5113569;28;20077;-77
2021/08/27 07:08:44;;;;;;;16.60;7.03;;;13.50;84.50;;;;;;5113529;28;20016;-77
2021/08/27 07:11:11;;;;;;;18.67;8.45;;;13.50;85.10;;;;;;5095175;28;20430;-78
2021/08/27 07:13:37;;;;;;;12.23;7.68;;;13.50;86.00;;;;;;5095114;28;20047;-77
2021/08/27 07:16:03;;;;;;;22.60;8.85;;;13.40;86.30;;;;;;5094710;28;20063;-77
2021/08/27 07:18:29;;;;;;;14.40;8.57;;;13.30;86.50;;;;;;5094492;28;20016;-77
2021/08/27 07:20:55;;;;;;;15.95;8.90;;;13.10;87.20;;;;;;5094770;28;20028;-76
2021/08/27 07:23:21;;;;;;;12.93;9.02;;;13.10;87.70;;;;;;5094918;28;20047;-77
2021/08/27 07:25:47;;;;;;;15.25;8.35;;;13.00;88.30;;;;;;5113341;28;20495;-77
2021/08/27 07:28:13;;;;;;;14.00;7.13;;;13.10;88.10;;;;;;5095280;28;20023;-76
2021/08/27 07:30:39;;;;;;;10.40;6.18;;;13.20;88.70;;;;;;5095045;28;20114;-77
2021/08/27 07:33:05;;;;;;;11.25;6.22;;;13.30;87.80;;;;;;5095128;28;20030;-75
2021/08/27 07:35:31;;;;;;;13.88;6.35;;;13.40;87.50;;;;;;5094667;28;20032;-80
2021/08/27 07:37:56;;;;;;;12.20;6.60;;;13.50;87.20;;;;;;5094938;28;20023;-76
2021/08/27 07:40:22;;;;;;;8.75;5.57;;;13.70;86.80;;;;;;5094677;28;20472;-73
2021/08/27 07:42:48;;;;;;;8.45;5.25;;;13.80;86.30;;;;;;5094789;28;20169;-73
2021/08/27 07:45:15;;;;;;;8.32;4.78;;;14.00;85.90;;;;;;5094657;28;20024;-74
2021/08/27 07:47:44;;;;;;;8.35;5.10;;;14.20;85.20;;;;;;5094720;28;20108;-76
2021/08/27 07:50:11;;;;;;;50.33;10.25;;;14.30;84.30;;;;;;5094950;28;20032;-74
2021/08/27 07:52:37;;;;;;;39.67;8.68;;;14.50;88.70;;;;;;5094599;28;20024;-73
2021/08/27 07:55:05;;;;;;;20.80;6.43;;;14.70;88.40;;;;;;5094472;28;20031;-74
2021/08/27 07:57:30;;;;;;;26.67;6.63;;;15.00;87.70;;;;;;5094655;28;20523;-74
2021/08/27 07:59:56;;;;;;;14.07;5.00;;;15.20;84.00;;;;;;5095538;28;20019;-73
2021/08/27 08:02:22;;;;;;;12.07;4.38;;;15.40;81.50;;;;;;5098077;28;20027;-73
2021/08/27 08:04:47;;;;;;;11.30;4.10;;;15.60;78.80;;;;;;5097933;28;20394;-73
2021/08/27 08:07:13;;;;;;;6.80;3.20;;;15.90;78.70;;;;;;5098617;28;20115;-72
2021/08/27 08:09:38;;;;;;;6.40;3.05;;;15.90;74.00;;;;;;5099476;28;20476;-75
2021/08/27 08:12:04;;;;;;;8.43;3.25;;;16.00;73.50;;;;;;5098105;28;20106;-73
2021/08/27 08:14:30;;;;;;;6.60;2.60;;;16.30;74.30;;;;;;5098081;28;20462;-72
2021/08/27 08:16:55;;;;;;;4.55;2.63;;;16.60;73.80;;;;;;5098046;28;20020;-73
2021/08/27 08:19:21;;;;;;;4.90;3.55;;;16.60;70.30;;;;;;5098109;28;20066;-72
2021/08/27 08:21:47;;;;;;;6.13;3.22;;;16.60;69.20;;;;;;5116491;28;20482;-73
2021/08/27 08:24:13;;;;;;;8.25;3.13;;;16.50;69.90;;;;;;5097838;28;20027;-72
2021/08/27 08:26:39;;;;;;;6.07;2.25;;;16.80;71.10;;;;;;5097689;28;20024;-72
2021/08/27 08:29:05;;;;;;;8.50;3.20;;;17.00;70.40;;;;;;5098161;28;20472;-73
2021/08/27 08:31:31;;;;;;;4.40;2.67;;;17.00;67.70;;;;;;5116028;28;20096;-73
2021/08/27 08:33:57;;;;;;;5.60;2.78;;;17.10;69.50;;;;;;5097417;28;20073;-74
2021/08/27 08:36:23;;;;;;;6.32;2.58;;;17.30;67.20;;;;;;5097996;28;20496;-73
2021/08/27 08:38:50;;;;;;;8.32;2.58;;;17.40;66.50;;;;;;5115852;28;20070;-76
2021/08/27 08:41:17;;;;;;;5.00;2.83;;;17.10;65.50;;;;;;5097791;28;20527;-74
2021/08/27 08:43:44;;;;;;;7.35;3.15;;;16.50;66.70;;;;;;5097611;28;20020;-77
2021/08/27 08:46:10;;;;;;;7.03;2.50;;;16.40;68.90;;;;;;5097928;28;20030;-75
2021/08/27 08:48:37;;;;;;;6.13;2.50;;;16.00;69.10;;;;;;5097910;28;20379;-74
2021/08/27 08:51:07;;;;;;;5.10;2.50;;;16.00;70.10;;;;;;5097918;28;20028;-76
2021/08/27 08:53:40;;;;;;;6.18;2.40;;;15.90;69.90;;;;;;5097772;28;20088;-75
2021/08/27 08:56:09;;;;;;;3.78;2.17;;;15.90;68.10;;;;;;5097997;28;20046;-79
2021/08/27 08:58:35;;;;;;;3.95;2.63;;;15.80;68.10;;;;;;5097700;28;20023;-74
2021/08/27 09:01:01;;;;;;;7.05;3.25;;;15.60;69.00;;;;;;5097875;28;20030;-73
2021/08/27 09:03:27;;;;;;;7.40;3.13;;;15.50;71.30;;;;;;5097377;28;20061;-73
2021/08/27 09:05:53;;;;;;;8.18;3.22;;;15.20;71.60;;;;;;5097176;28;20392;-74
2021/08/27 09:08:39;;;;;;;6.47;3.33;;;15.10;71.90;;;;;;5097476;28;20062;-74
2021/08/27 09:11:32;;;;;;;7.22;3.20;;;15.20;71.70;;;;;;5097254;28;20019;-74
2021/08/27 09:14:02;;;;;;;8.20;3.67;;;15.30;70.70;;;;;;5095730;28;20028;-73
2021/08/27 09:16:37;;;;;;;7.93;3.65;;;15.20;71.10;;;;;;5115678;28;20396;-74
2021/08/27 09:19:03;;;;;;;9.60;4.22;;;15.20;70.90;;;;;;5097498;28;20425;-73
2021/08/27 09:21:45;;;;;;;5.97;3.20;;;15.40;70.70;;;;;;5096762;28;20099;-73
2021/08/27 09:24:25;;;;;;;6.88;3.08;;;15.60;71.10;;;;;;5096924;28;20070;-74
2021/08/27 09:27:00;;;;;;;8.88;3.70;;;16.10;72.10;;;;;;5096610;28;20035;-74
2021/08/27 09:29:44;;;;;;;7.53;3.50;;;16.60;69.80;;;;;;5096771;28;20348;-73
2021/08/27 09:32:30;;;;;;;7.55;3.75;;;16.80;68.50;;;;;;5096706;28;20024;-74
2021/08/27 09:35:15;;;;;;;7.55;3.78;;;17.00;65.80;;;;;;5096766;28;20123;-74
2021/08/27 09:37:43;;;;;;;8.23;3.50;;;16.70;64.80;;;;;;5093922;28;20032;-74
2021/08/27 09:40:14;;;;;;;11.15;3.22;;;16.30;64.40;;;;;;5096926;28;20097;-76
2021/08/27 09:42:49;;;;;;;7.22;3.25;;;16.20;65.20;;;;;;5115269;28;20038;-74
2021/08/27 09:45:16;;;;;;;8.48;4.18;;;16.30;65.20;;;;;;5100603;28;20049;-75
2021/08/27 09:48:02;;;;;;;8.20;3.90;;;16.50;65.00;;;;;;5103621;28;20028;-73
2021/08/27 09:50:30;;;;;;;6.13;3.63;;;16.60;64.70;;;;;;5097101;28;20024;-74
2021/08/27 09:53:00;;;;;;;5.47;3.70;;;16.70;63.20;;;;;;5096163;28;20476;-74
2021/08/27 09:55:28;;;;;;;5.20;3.25;;;16.70;63.60;;;;;;5096326;28;20040;-74
2021/08/27 09:58:02;;;;;;;5.78;3.33;;;17.00;63.40;;;;;;5096277;28;20020;-74
2021/08/27 10:00:28;;;;;;;4.60;2.70;;;17.50;61.80;;;;;;5098108;28;20056;-74
2021/08/27 10:02:54;;;;;;;3.45;2.70;;;17.40;60.50;;;;;;5102029;28;20266;-74
2021/08/27 10:05:38;;;;;;;7.30;3.05;;;17.10;60.80;;;;;;5103503;28;20023;-74
2021/08/27 10:08:21;;;;;;;4.65;2.80;;;17.10;62.50;;;;;;5119002;28;20027;-74
2021/08/27 10:10:50;;;;;;;4.78;3.08;;;17.00;61.40;;;;;;5100840;28;20046;-75
2021/08/27 10:13:16;;;;;;;4.60;3.00;;;16.60;60.30;;;;;;5099616;28;20024;-74
2021/08/27 10:15:41;;;;;;;7.22;2.72;;;16.60;62.40;;;;;;5095846;28;20192;-75
2021/08/27 10:18:09;;;;;;;5.15;2.80;;;16.60;62.60;;;;;;5114610;28;20020;-75
2021/08/27 10:20:43;;;;;;;4.68;2.25;;;16.80;61.60;;;;;;5095773;28;20426;-75
2021/08/27 10:23:11;;;;;;;7.60;2.78;;;17.20;60.40;;;;;;5095599;28;20476;-75
2021/08/27 10:25:39;;;;;;;5.90;2.35;;;17.60;59.50;;;;;;5114414;28;20533;-75
2021/08/27 10:28:06;;;;;;;5.47;2.67;;;17.60;60.20;;;;;;5096132;28;20133;-74
2021/08/27 10:30:52;;;;;;;4.97;2.95;;;18.00;57.70;;;;;;5096101;28;20403;-78
2021/08/27 10:33:39;;;;;;;4.78;2.45;;;18.20;56.40;;;;;;5095674;28;20547;-78
2021/08/27 10:36:05;;;;;;;10.45;5.75;;;18.20;56.30;;;;;;5095429;28;20042;-76
2021/08/27 10:38:51;;;;;;;8.68;3.00;;;18.00;57.70;;;;;;5113826;28;20488;-75
2021/08/27 10:41:17;;;;;;;5.53;2.70;;;17.90;57.60;;;;;;5095702;28;20138;-77
2021/08/27 10:43:50;;;;;;;10.27;2.80;;;17.80;57.90;;;;;;5095955;28;20084;-79
2021/08/27 10:46:15;;;;;;;5.88;2.63;;;17.80;56.80;;;;;;5095834;28;20019;-79
2021/08/27 10:48:49;;;;;;;4.07;2.63;;;17.80;56.60;;;;;;5079033;28;20110;-79
2021/08/27 10:51:31;;;;;;;7.55;2.42;;;17.40;58.10;;;;;;5095901;28;20016;-78
2021/08/27 10:53:57;;;;;;;3.35;2.63;;;17.10;58.00;;;;;;5095459;28;20031;-79
2021/08/27 10:56:52;;;;;;;4.28;2.60;;;16.90;58.50;;;;;;5095570;28;20023;-77
2021/08/27 10:59:20;;;;;;;6.90;2.63;;;16.80;58.90;;;;;;5095362;28;20024;-78
2021/08/27 11:01:58;;;;;;;5.53;2.85;;;16.70;60.70;;;;;;5095271;28;20551;-78
2021/08/27 11:04:25;;;;;;;6.57;2.90;;;16.50;60.20;;;;;;5095397;28;20027;-76
2021/08/27 11:07:04;;;;;;;4.10;2.60;;;16.60;61.50;;;;;;5097050;28;20076;-79
2021/08/27 11:09:31;;;;;;;7.18;2.80;;;16.60;62.30;;;;;;5122129;28;20016;-79
2021/08/27 11:12:11;;;;;;;3.58;2.63;;;17.00;62.50;;;;;;5096258;28;20115;-80
2021/08/27 11:14:39;;;;;;;5.32;3.10;;;17.50;60.40;;;;;;5095319;28;20613;-81
2021/08/27 11:17:06;;;;;;;3.83;2.13;;;17.60;59.10;;;;;;5094990;28;20031;-79
2021/08/27 11:19:43;;;;;;;2.90;2.55;;;17.90;58.60;;;;;;5095151;28;20045;-77
2021/08/27 11:22:12;;;;;;;6.43;3.05;;;18.10;57.10;;;;;;5095254;28;20429;-78
2021/08/27 11:24:39;;;;;;;6.22;2.70;;;18.20;56.90;;;;;;5113597;28;20425;-79
2021/08/27 11:27:07;;;;;;;4.05;2.47;;;17.70;56.20;;;;;;5095165;28;20038;-80
2021/08/27 11:29:41;;;;;;;2.70;1.80;;;17.40;56.70;;;;;;5095198;28;20026;-80
2021/08/27 11:32:25;;;;;;;2.30;1.98;;;17.20;55.80;;;;;;5095228;28;20024;-79
2021/08/27 11:35:03;;;;;;;4.25;2.00;;;16.90;54.90;;;;;;5112389;28;20055;-79
2021/08/27 11:37:38;;;;;;;3.25;1.98;;;16.90;56.70;;;;;;5095563;28;20027;-79
2021/08/27 11:40:13;;;;;;;2.78;1.67;;;17.00;56.50;;;;;;5093105;28;20076;-79
2021/08/27 11:42:39;;;;;;;3.47;1.38;;;17.50;53.30;;;;;;5094495;28;20032;-77
2021/08/27 11:45:09;;;;;;;4.30;1.40;;;18.00;51.10;;;;;;5094370;28;20064;-79
2021/08/27 11:47:49;;;;;;;0.93;0.82;;;18.20;50.00;;;;;;5112942;28;20104;-81
2021/08/27 11:50:35;;;;;;;2.30;1.20;;;18.30;49.10;;;;;;5095161;28;20028;-79
2021/08/27 11:53:02;;;;;;;3.83;1.60;;;18.40;47.00;;;;;;5094850;28;20020;-80
2021/08/27 11:55:29;;;;;;;2.88;1.38;;;18.10;47.00;;;;;;5094603;28;20036;-77
2021/08/27 11:57:56;;;;;;;3.28;1.20;;;18.10;47.50;;;;;;5095417;28;20028;-79
2021/08/27 12:00:38;;;;;;;3.67;1.30;;;18.00;47.80;;;;;;5113440;28;20037;-75
2021/08/27 12:03:05;;;;;;;3.67;1.30;;;17.50;50.60;;;;;;5094486;28;20031;-76
2021/08/27 12:05:32;;;;;;;2.33;1.25;;;17.60;50.80;;;;;;5094742;28;20032;-75
2021/08/27 12:08:03;;;;;;;4.72;1.70;;;17.80;51.00;;;;;;5094862;28;20034;-75
2021/08/27 12:10:31;;;;;;;3.55;1.98;;;17.90;51.90;;;;;;5094463;28;20399;-75
2021/08/27 12:12:56;;;;;;;5.15;2.13;;;18.10;53.70;;;;;;5094554;28;20023;-73
2021/08/27 12:15:30;;;;;;;2.78;1.77;;;18.20;54.30;;;;;;5094404;28;20062;-74
2021/08/27 12:18:13;;;;;;;2.38;1.70;;;17.90;53.30;;;;;;5094083;28;20114;-74
2021/08/27 12:20:52;;;;;;;6.80;1.85;;;17.60;52.30;;;;;;5093856;28;20024;-74
2021/08/27 12:23:21;;;;;;;4.15;1.63;;;17.60;52.10;;;;;;5094442;28;20034;-74
2021/08/27 12:26:00;;;;;;;4.90;2.25;;;17.70;52.90;;;;;;5094391;28;20027;-74
2021/08/27 12:28:31;;;;;;;2.78;1.80;;;17.70;53.00;;;;;;5094467;28;20030;-74
2021/08/27 12:30:58;;;;;;;3.42;1.60;;;17.80;54.00;;;;;;5094256;28;20375;-74
2021/08/27 12:33:26;;;;;;;1.83;1.20;;;17.90;53.60;;;;;;5094432;28;20024;-74
2021/08/27 12:35:54;;;;;;;5.32;1.63;;;18.00;52.50;;;;;;5094066;28;20035;-72
2021/08/27 12:38:21;;;;;;;2.13;1.15;;;17.90;53.00;;;;;;5108495;28;20382;-73
2021/08/27 12:40:47;;;;;;;4.07;1.20;;;17.80;51.40;;;;;;5118241;28;20059;-74
2021/08/27 12:43:15;;;;;;;2.83;1.33;;;17.80;49.80;;;;;;5115626;28;20031;-74
2021/08/27 12:45:52;;;;;;;5.25;1.55;;;17.80;49.40;;;;;;5114935;27;20020;-74
2021/08/27 12:48:21;;;;;;;3.75;1.60;;;17.80;49.40;;;;;;5118345;27;20023;-76
2021/08/27 12:50:55;;;;;;;3.22;1.15;;;17.90;48.90;;;;;;5118238;27;20437;-76
2021/08/27 12:53:41;;;;;;;4.72;1.77;;;18.10;48.50;;;;;;5118188;27;20027;-74